Time;durP1;ratioP1;P1;durP2;ratioP2;P2;SDS_P1;SDS_P2;PMS_P1;PMS_P2;Temp;Humidity;BMP_temperature;BMP_pressure;BME280_temperature;BME280_humidity;BME280_pressure;Samples;Min_cycle;Max_cycle;Signal;HPM_P1;HPM_P2
2022/02/18 00:00:45;;;;;;;30.08;4.35;;;8.30;99.90;;;;;;5051803;28;20080;-81
2022/02/18 00:03:11;;;;;;;21.17;4.00;;;8.30;99.90;;;;;;5050439;28;20052;-79
2022/02/18 00:05:37;;;;;;;23.15;4.47;;;8.30;99.90;;;;;;5051359;28;20458;-80
2022/02/18 00:08:04;;;;;;;18.48;3.95;;;8.30;99.90;;;;;;5051216;28;20027;-80
2022/02/18 00:10:30;;;;;;;23.83;4.45;;;8.20;99.90;;;;;;5051238;28;20039;-80
2022/02/18 00:12:55;;;;;;;27.33;4.03;;;8.20;99.90;;;;;;5051557;28;20033;-74
2022/02/18 00:15:21;;;;;;;21.45;4.20;;;8.10;99.90;;;;;;5050457;28;20470;-80
2022/02/18 00:17:49;;;;;;;29.75;4.22;;;8.00;99.90;;;;;;5050640;28;20024;-79
2022/02/18 00:20:15;;;;;;;26.67;4.35;;;7.90;99.90;;;;;;5050226;28;20432;-80
2022/02/18 00:22:42;;;;;;;25.73;4.50;;;7.90;99.90;;;;;;5050543;28;20418;-80
2022/02/18 00:25:08;;;;;;;25.08;3.92;;;7.90;99.90;;;;;;5049321;28;20485;-80
2022/02/18 00:27:43;;;;;;;22.50;3.95;;;7.90;99.90;;;;;;5050891;28;20150;-80
2022/02/18 00:30:09;;;;;;;19.75;3.83;;;7.90;99.90;;;;;;5050300;28;20036;-80
2022/02/18 00:32:36;;;;;;;27.02;3.97;;;7.90;99.90;;;;;;5050797;28;20039;-80
2022/02/18 00:35:02;;;;;;;24.77;3.67;;;7.90;99.90;;;;;;5048443;28;20087;-79
2022/02/18 00:37:28;;;;;;;25.52;5.18;;;8.00;99.90;;;;;;5050543;28;20025;-80
2022/02/18 00:39:56;;;;;;;21.55;4.10;;;8.10;99.90;;;;;;5050266;28;20039;-80
2022/02/18 00:42:22;;;;;;;27.33;5.00;;;8.00;99.90;;;;;;5049671;28;20111;-80
2022/02/18 00:44:48;;;;;;;23.75;4.80;;;8.10;99.90;;;;;;5050615;28;20394;-81
2022/02/18 00:47:14;;;;;;;20.05;4.57;;;8.20;99.90;;;;;;5050130;28;20021;-82
2022/02/18 00:49:40;;;;;;;19.15;3.50;;;8.20;99.90;;;;;;5050680;28;20546;-81
2022/02/18 00:52:06;;;;;;;26.00;4.53;;;8.30;99.90;;;;;;5049393;28;20462;-81
2022/02/18 00:54:32;;;;;;;19.85;3.78;;;8.40;99.90;;;;;;5050610;28;20033;-81
2022/02/18 00:56:58;;;;;;;20.92;4.20;;;8.40;99.90;;;;;;5049949;28;20049;-76
2022/02/18 00:59:24;;;;;;;20.02;3.83;;;8.40;99.90;;;;;;5050118;28;20041;-80
2022/02/18 01:01:49;;;;;;;29.02;4.88;;;8.40;99.90;;;;;;5051860;28;20474;-79
2022/02/18 01:04:16;;;;;;;27.50;4.35;;;8.40;99.90;;;;;;5053650;28;20033;-80
2022/02/18 01:06:42;;;;;;;22.33;4.93;;;8.40;99.90;;;;;;5053923;28;20499;-80
2022/02/18 01:09:08;;;;;;;20.67;3.70;;;8.40;99.90;;;;;;5053260;28;20112;-81
2022/02/18 01:11:34;;;;;;;26.88;5.10;;;8.50;99.90;;;;;;5053412;28;20389;-80
2022/02/18 01:14:00;;;;;;;16.27;3.70;;;8.60;99.90;;;;;;5053161;28;20065;-76
2022/02/18 01:16:27;;;;;;;26.60;4.20;;;8.60;99.90;;;;;;5053909;28;20029;-80
2022/02/18 01:18:53;;;;;;;30.60;5.05;;;8.50;99.90;;;;;;5053607;28;20397;-80
2022/02/18 01:21:20;;;;;;;25.63;4.28;;;8.50;99.90;;;;;;5052866;28;20025;-81
2022/02/18 01:23:47;;;;;;;29.48;3.97;;;8.50;99.90;;;;;;5054043;28;20123;-81
2022/02/18 01:26:13;;;;;;;14.60;3.25;;;8.50;99.90;;;;;;5051835;28;20465;-81
2022/02/18 01:28:39;;;;;;;24.35;4.22;;;8.50;99.90;;;;;;5053131;28;20033;-82
2022/02/18 01:31:04;;;;;;;18.02;4.05;;;8.50;99.90;;;;;;5052574;28;20153;-82
2022/02/18 01:33:30;;;;;;;25.08;3.78;;;8.50;99.90;;;;;;5052581;28;20394;-82
2022/02/18 01:35:56;;;;;;;25.60;4.28;;;8.50;99.90;;;;;;5053346;28;20053;-81
2022/02/18 01:38:21;;;;;;;20.23;4.50;;;8.50;99.90;;;;;;5052672;28;20021;-80
2022/02/18 01:40:47;;;;;;;23.17;3.65;;;8.50;99.90;;;;;;5053335;28;20037;-81
2022/02/18 01:43:13;;;;;;;12.77;3.13;;;8.40;99.90;;;;;;5052206;28;20025;-81
2022/02/18 01:45:39;;;;;;;22.98;4.10;;;8.40;99.90;;;;;;5052809;28;20051;-81
2022/02/18 01:48:05;;;;;;;18.98;3.97;;;8.40;99.90;;;;;;5052709;28;20029;-80
2022/02/18 01:50:30;;;;;;;19.33;3.17;;;8.40;99.90;;;;;;5053043;28;20044;-80
2022/02/18 01:52:58;;;;;;;15.75;3.30;;;8.40;99.90;;;;;;5053177;28;20036;-81
2022/02/18 01:55:24;;;;;;;18.13;3.47;;;8.40;99.90;;;;;;5052360;28;20036;-81
2022/02/18 01:57:53;;;;;;;22.85;5.03;;;8.40;99.90;;;;;;5052742;28;20120;-81
2022/02/18 02:00:21;;;;;;;22.40;4.30;;;8.40;99.90;;;;;;5052641;28;20703;-81
2022/02/18 02:02:48;;;;;;;20.88;4.30;;;8.40;99.90;;;;;;5052640;28;20033;-81
2022/02/18 02:05:14;;;;;;;22.95;4.18;;;8.40;99.90;;;;;;5051877;28;20036;-80
2022/02/18 02:07:42;;;;;;;17.52;3.40;;;8.40;99.90;;;;;;5053436;28;20102;-80
2022/02/18 02:10:08;;;;;;;23.38;3.78;;;8.40;99.90;;;;;;5050846;28;20484;-79
2022/02/18 02:12:43;;;;;;;24.48;3.95;;;8.40;99.90;;;;;;5052472;28;20040;-81
2022/02/18 02:15:10;;;;;;;14.95;3.30;;;8.40;99.90;;;;;;5059214;28;20029;-80
2022/02/18 02:17:37;;;;;;;17.48;3.95;;;8.40;99.90;;;;;;5052662;28;20143;-81
2022/02/18 02:20:05;;;;;;;19.92;3.33;;;8.40;99.90;;;;;;5052016;28;20036;-76
2022/02/18 02:22:31;;;;;;;18.48;3.67;;;8.40;99.90;;;;;;5052446;28;20044;-80
2022/02/18 02:24:58;;;;;;;21.40;3.80;;;8.30;99.90;;;;;;5052571;28;20025;-81
2022/02/18 02:27:23;;;;;;;27.45;4.00;;;8.20;99.90;;;;;;5051256;28;20032;-81
2022/02/18 02:29:50;;;;;;;23.42;3.85;;;8.20;99.90;;;;;;5052627;28;20079;-81
2022/02/18 02:32:16;;;;;;;19.05;4.10;;;8.20;99.90;;;;;;5051388;28;20443;-81
2022/02/18 02:34:42;;;;;;;21.05;3.75;;;8.20;99.90;;;;;;5052190;28;20044;-81
2022/02/18 02:37:08;;;;;;;17.25;3.80;;;8.20;99.90;;;;;;5051731;28;20103;-81
2022/02/18 02:39:34;;;;;;;15.15;3.72;;;8.20;99.90;;;;;;5052632;28;20025;-81
2022/02/18 02:42:00;;;;;;;17.92;3.28;;;8.20;99.90;;;;;;5051592;28;20048;-76
2022/02/18 02:44:27;;;;;;;28.13;4.75;;;8.20;99.90;;;;;;5051401;28;20107;-79
2022/02/18 02:46:53;;;;;;;21.25;3.90;;;8.20;99.90;;;;;;5052228;28;20526;-81
2022/02/18 02:49:18;;;;;;;17.50;3.80;;;8.20;99.90;;;;;;5051297;28;20112;-81
2022/02/18 02:51:44;;;;;;;22.38;4.03;;;8.10;99.90;;;;;;5052011;28;20173;-82
2022/02/18 02:54:10;;;;;;;14.48;3.28;;;8.10;99.90;;;;;;5051180;28;20025;-81
2022/02/18 02:56:36;;;;;;;24.05;3.72;;;8.00;99.90;;;;;;5051421;28;20078;-81
2022/02/18 02:59:01;;;;;;;19.45;3.35;;;8.00;99.90;;;;;;5051948;28;20409;-76
2022/02/18 03:01:28;;;;;;;16.75;3.58;;;8.00;99.90;;;;;;5051353;28;20044;-81
2022/02/18 03:03:53;;;;;;;15.50;3.17;;;8.00;99.90;;;;;;5052077;28;20036;-81
2022/02/18 03:06:19;;;;;;;18.88;3.55;;;8.00;99.90;;;;;;5050457;28;20033;-81
2022/02/18 03:08:45;;;;;;;17.98;3.22;;;8.00;99.90;;;;;;5052213;28;20533;-81
2022/02/18 03:11:16;;;;;;;16.73;3.05;;;8.00;99.90;;;;;;5052545;28;20032;-79
2022/02/18 03:13:48;;;;;;;23.08;3.42;;;7.90;99.90;;;;;;5052883;28;20029;-81
2022/02/18 03:16:15;;;;;;;22.48;4.45;;;7.90;99.90;;;;;;5050626;28;20051;-81
2022/02/18 03:18:41;;;;;;;18.35;3.22;;;7.90;99.90;;;;;;5050636;28;20485;-80
2022/02/18 03:21:07;;;;;;;17.38;3.92;;;7.90;99.90;;;;;;5049418;28;20375;-80
2022/02/18 03:23:34;;;;;;;19.35;3.15;;;7.80;99.90;;;;;;5049908;28;20033;-80
2022/02/18 03:26:00;;;;;;;17.95;3.65;;;7.80;99.90;;;;;;5049845;28;20165;-81
2022/02/18 03:28:26;;;;;;;22.48;4.20;;;7.70;99.90;;;;;;5049341;28;20143;-80
2022/02/18 03:30:52;;;;;;;19.38;3.95;;;7.70;99.90;;;;;;5047454;28;20438;-82
2022/02/18 03:33:17;;;;;;;18.77;3.72;;;7.70;99.90;;;;;;5049475;28;20040;-82
2022/02/18 03:35:43;;;;;;;15.77;3.25;;;7.60;99.90;;;;;;5050176;28;20040;-80
2022/02/18 03:38:09;;;;;;;19.25;2.97;;;7.60;99.90;;;;;;5049473;28;20427;-82
2022/02/18 03:40:35;;;;;;;17.17;2.72;;;7.60;99.90;;;;;;5050028;28;20025;-82
2022/02/18 03:43:01;;;;;;;15.23;3.40;;;7.60;99.90;;;;;;5049836;28;20033;-76
2022/02/18 03:45:27;;;;;;;19.30;3.33;;;7.60;99.90;;;;;;5049567;28;20480;-81
2022/02/18 03:47:53;;;;;;;20.75;3.88;;;7.50;99.90;;;;;;5049541;28;20036;-80
2022/02/18 03:50:20;;;;;;;14.80;2.97;;;7.50;99.90;;;;;;5049412;28;20112;-81
2022/02/18 03:52:45;;;;;;;17.73;3.97;;;7.50;99.90;;;;;;5049392;28;20028;-81
2022/02/18 03:55:11;;;;;;;13.68;3.28;;;7.50;99.90;;;;;;5047905;28;20039;-81
2022/02/18 03:57:37;;;;;;;17.10;2.88;;;7.50;99.90;;;;;;5050138;28;20052;-81
2022/02/18 04:00:05;;;;;;;17.13;3.47;;;7.50;99.90;;;;;;5049647;28;20044;-76
2022/02/18 04:02:31;;;;;;;25.10;4.53;;;7.40;99.90;;;;;;5049618;28;20025;-81
2022/02/18 04:04:56;;;;;;;18.65;4.15;;;7.40;99.90;;;;;;5050029;28;20024;-80
2022/02/18 04:07:22;;;;;;;25.35;3.42;;;7.30;99.90;;;;;;5049265;28;20037;-81
2022/02/18 04:09:47;;;;;;;10.65;3.53;;;7.30;99.90;;;;;;5050155;28;20393;-81
2022/02/18 04:12:13;;;;;;;15.95;3.38;;;7.30;99.90;;;;;;5048529;28;20032;-80
2022/02/18 04:14:39;;;;;;;14.60;3.22;;;7.30;99.90;;;;;;5049671;28;20021;-81
2022/02/18 04:17:04;;;;;;;19.98;2.97;;;7.30;99.90;;;;;;5049060;28;20017;-75
2022/02/18 04:19:30;;;;;;;17.00;3.30;;;7.30;99.90;;;;;;5049734;28;20462;-81
2022/02/18 04:21:56;;;;;;;19.88;3.17;;;7.30;99.90;;;;;;5049696;28;20029;-82
2022/02/18 04:24:22;;;;;;;17.33;3.67;;;7.30;99.90;;;;;;5048805;28;20466;-81
2022/02/18 04:26:47;;;;;;;17.73;3.47;;;7.30;99.90;;;;;;5049824;28;20446;-80
2022/02/18 04:29:13;;;;;;;14.23;2.95;;;7.30;99.90;;;;;;5048984;28;20122;-81
2022/02/18 04:31:38;;;;;;;22.23;3.63;;;7.30;99.90;;;;;;5049663;28;20029;-83
2022/02/18 04:34:04;;;;;;;20.20;2.97;;;7.30;99.90;;;;;;5049041;28;20036;-76
2022/02/18 04:36:30;;;;;;;13.32;2.40;;;7.30;99.90;;;;;;5050424;28;20032;-81
2022/02/18 04:38:55;;;;;;;10.90;2.70;;;7.30;99.90;;;;;;5053889;28;20075;-80
2022/02/18 04:41:22;;;;;;;12.55;2.63;;;7.30;99.90;;;;;;5053380;28;20037;-82
2022/02/18 04:43:48;;;;;;;12.25;2.55;;;7.30;99.90;;;;;;5053432;28;20025;-81
2022/02/18 04:46:14;;;;;;;18.63;3.45;;;7.30;99.90;;;;;;5052534;28;20469;-80
2022/02/18 04:48:39;;;;;;;13.82;2.67;;;7.30;99.90;;;;;;5053413;28;20028;-81
2022/02/18 04:51:05;;;;;;;11.05;2.88;;;7.30;99.90;;;;;;5052599;28;20033;-76
2022/02/18 04:53:31;;;;;;;13.80;3.05;;;7.30;99.90;;;;;;5053395;28;20025;-81
2022/02/18 04:55:56;;;;;;;20.45;3.50;;;7.30;99.90;;;;;;5053807;28;20457;-81
2022/02/18 04:58:22;;;;;;;15.65;2.90;;;7.30;99.90;;;;;;5053252;28;20045;-82
2022/02/18 05:00:47;;;;;;;20.13;3.25;;;7.40;99.90;;;;;;5054748;28;20462;-81
2022/02/18 05:03:14;;;;;;;20.77;3.05;;;7.40;99.90;;;;;;5057529;28;20048;-81
2022/02/18 05:05:40;;;;;;;15.43;2.90;;;7.40;99.90;;;;;;5058516;28;20104;-81
2022/02/18 05:08:06;;;;;;;18.08;4.05;;;7.40;99.90;;;;;;5057137;28;20037;-78
2022/02/18 05:10:32;;;;;;;12.23;2.30;;;7.40;99.90;;;;;;5058024;28;20029;-81
2022/02/18 05:12:57;;;;;;;18.60;3.13;;;7.50;99.90;;;;;;5055384;28;20025;-81
2022/02/18 05:15:23;;;;;;;15.30;2.92;;;7.60;99.90;;;;;;5052471;28;20032;-80
2022/02/18 05:17:49;;;;;;;15.75;2.92;;;7.60;99.90;;;;;;5053331;28;20104;-82
2022/02/18 05:20:16;;;;;;;21.17;3.53;;;7.60;99.90;;;;;;5052190;28;20115;-81
2022/02/18 05:22:42;;;;;;;19.05;3.58;;;7.60;99.90;;;;;;5053346;28;20455;-81
2022/02/18 05:25:08;;;;;;;27.13;4.03;;;7.70;99.90;;;;;;5052129;28;20063;-81
2022/02/18 05:27:34;;;;;;;16.67;3.05;;;7.80;99.90;;;;;;5053088;28;20063;-81
2022/02/18 05:29:59;;;;;;;17.10;3.47;;;7.80;99.90;;;;;;5052479;28;20029;-82
2022/02/18 05:32:25;;;;;;;15.93;3.33;;;7.80;99.90;;;;;;5051951;28;20512;-82
2022/02/18 05:34:50;;;;;;;17.30;3.33;;;7.80;99.90;;;;;;5052699;28;20033;-82
2022/02/18 05:37:16;;;;;;;21.80;3.35;;;7.80;99.90;;;;;;5052850;28;20025;-82
2022/02/18 05:39:42;;;;;;;18.30;3.53;;;7.80;99.90;;;;;;5052386;28;20019;-81
2022/02/18 05:42:07;;;;;;;16.52;3.03;;;7.90;99.90;;;;;;5052897;28;20064;-80
2022/02/18 05:44:34;;;;;;;16.70;3.03;;;7.90;99.90;;;;;;5053505;28;20104;-82
2022/02/18 05:47:00;;;;;;;16.33;3.08;;;7.80;99.90;;;;;;5054925;28;20025;-80
2022/02/18 05:49:27;;;;;;;17.48;2.88;;;7.80;99.90;;;;;;5054054;28;20095;-77
2022/02/18 05:51:52;;;;;;;16.42;3.40;;;7.80;99.90;;;;;;5054975;28;20033;-81
2022/02/18 05:54:18;;;;;;;19.40;3.28;;;7.80;99.90;;;;;;5054289;28;20428;-82
2022/02/18 05:56:44;;;;;;;17.17;2.92;;;7.80;99.90;;;;;;5055762;28;20440;-82
2022/02/18 05:59:09;;;;;;;14.20;3.17;;;7.70;99.90;;;;;;5053747;28;20037;-81
2022/02/18 06:01:38;;;;;;;15.45;4.15;;;7.80;99.90;;;;;;5053351;28;20070;-80
2022/02/18 06:04:04;;;;;;;14.18;3.45;;;7.70;99.90;;;;;;5052933;28;20036;-77
2022/02/18 06:06:30;;;;;;;21.58;2.88;;;7.70;99.90;;;;;;5053497;28;20033;-81
2022/02/18 06:08:56;;;;;;;14.10;3.50;;;7.80;99.90;;;;;;5052835;28;20029;-80
2022/02/18 06:11:21;;;;;;;15.32;3.00;;;7.80;99.90;;;;;;5051212;28;20045;-84
2022/02/18 06:13:47;;;;;;;13.90;2.83;;;7.80;99.90;;;;;;5053545;28;20060;-70
2022/02/18 06:16:14;;;;;;;18.75;3.97;;;7.90;99.90;;;;;;5052341;28;20112;-74
2022/02/18 06:18:39;;;;;;;16.55;3.15;;;7.90;99.90;;;;;;5053175;28;20033;-73
2022/02/18 06:21:05;;;;;;;18.38;3.08;;;7.90;99.90;;;;;;5052449;28;20166;-72
2022/02/18 06:23:31;;;;;;;14.68;2.65;;;7.90;99.90;;;;;;5053036;28;20025;-75
2022/02/18 06:25:57;;;;;;;21.30;3.92;;;7.90;99.90;;;;;;5051638;28;20044;-78
2022/02/18 06:28:22;;;;;;;16.52;3.00;;;7.90;99.90;;;;;;5052181;28;20032;-78
2022/02/18 06:30:48;;;;;;;19.88;3.03;;;8.00;99.90;;;;;;5052950;28;20102;-80
2022/02/18 06:33:14;;;;;;;17.50;3.28;;;8.00;99.90;;;;;;5052019;28;20037;-80
2022/02/18 06:35:40;;;;;;;15.43;2.78;;;8.00;99.90;;;;;;5052797;28;20076;-81
2022/02/18 06:38:09;;;;;;;14.02;2.22;;;8.00;99.90;;;;;;5052850;28;20029;-75
2022/02/18 06:40:35;;;;;;;15.03;3.00;;;8.00;99.90;;;;;;5052590;28;20033;-75
2022/02/18 06:43:01;;;;;;;20.25;2.90;;;8.10;99.90;;;;;;5053483;28;20035;-78
2022/02/18 06:45:27;;;;;;;18.08;3.35;;;8.10;99.90;;;;;;5052831;28;20107;-85
2022/02/18 06:47:52;;;;;;;17.45;2.88;;;8.10;99.90;;;;;;5053564;28;20136;-79
2022/02/18 06:50:19;;;;;;;17.48;3.38;;;8.10;99.90;;;;;;5051837;28;20035;-73
2022/02/18 06:52:48;;;;;;;14.80;3.33;;;8.10;99.90;;;;;;5052827;28;20119;-76
2022/02/18 06:55:14;;;;;;;20.60;3.65;;;8.10;99.90;;;;;;5052163;28;20029;-78
2022/02/18 06:57:44;;;;;;;13.45;3.03;;;8.20;99.90;;;;;;5059247;28;20115;-78
2022/02/18 07:00:11;;;;;;;;;;;8.20;99.90;;;;;;5060609;28;20029;-80
2022/02/18 07:02:38;;;;;;;15.10;3.03;;;8.20;99.90;;;;;;5052941;28;19904;-78
2022/02/18 07:05:06;;;;;;;17.42;3.03;;;8.30;99.90;;;;;;5051209;28;20029;-78
2022/02/18 07:07:32;;;;;;;18.42;3.75;;;8.30;99.90;;;;;;5052109;28;20033;-76
2022/02/18 07:09:57;;;;;;;15.38;2.92;;;8.40;99.90;;;;;;5052003;28;20032;-76
2022/02/18 07:12:25;;;;;;;16.05;2.90;;;8.50;99.90;;;;;;5051444;28;20033;-76
2022/02/18 07:14:53;;;;;;;16.98;3.13;;;8.60;99.90;;;;;;5051690;28;20454;-76
2022/02/18 07:17:19;;;;;;;13.38;2.63;;;8.70;99.90;;;;;;5051662;28;20354;-86
2022/02/18 07:19:45;;;;;;;11.90;2.20;;;8.80;99.90;;;;;;5050880;28;20043;-76
2022/02/18 07:22:11;;;;;;;15.10;3.28;;;8.90;99.90;;;;;;5050957;28;20485;-81
2022/02/18 07:24:37;;;;;;;15.00;3.35;;;9.00;99.90;;;;;;5051464;28;20086;-80
2022/02/18 07:27:03;;;;;;;13.10;2.60;;;9.10;99.90;;;;;;5051821;28;20021;-85
2022/02/18 07:29:28;;;;;;;16.85;2.60;;;9.20;99.90;;;;;;5050499;28;20120;-77
2022/02/18 07:31:54;;;;;;;16.27;3.35;;;9.30;99.90;;;;;;5051347;28;20474;-77
2022/02/18 07:34:19;;;;;;;14.32;2.58;;;9.30;99.90;;;;;;5050326;28;20025;-75
2022/02/18 07:36:45;;;;;;;18.35;3.72;;;9.40;99.90;;;;;;5051509;28;20032;-77
2022/02/18 07:39:11;;;;;;;9.00;2.50;;;9.50;99.90;;;;;;5050656;28;20074;-76
2022/02/18 07:41:36;;;;;;;14.48;3.00;;;9.60;99.90;;;;;;5051513;28;20112;-74
2022/02/18 07:44:02;;;;;;;12.68;2.83;;;9.60;99.90;;;;;;5051270;28;20139;-75
2022/02/18 07:46:28;;;;;;;12.30;3.58;;;9.60;99.90;;;;;;5049382;28;20025;-75
2022/02/18 07:48:53;;;;;;;16.13;2.45;;;9.60;99.90;;;;;;5051601;28;20355;-75
2022/02/18 07:51:19;;;;;;;14.63;2.70;;;9.60;99.90;;;;;;5050963;28;20032;-86
2022/02/18 07:53:46;;;;;;;9.80;2.22;;;9.60;99.90;;;;;;5052507;28;20036;-89
2022/02/18 07:56:11;;;;;;;14.70;2.70;;;9.60;99.90;;;;;;5051278;28;20086;-86
2022/02/18 07:58:37;;;;;;;13.13;2.47;;;9.60;99.90;;;;;;5052936;28;20053;-87
2022/02/18 08:01:04;;;;;;;13.57;2.28;;;9.70;99.90;;;;;;5052923;28;20037;-87
2022/02/18 08:03:29;;;;;;;12.85;2.78;;;9.70;99.90;;;;;;5051819;28;20075;-87
2022/02/18 08:05:58;;;;;;;16.20;2.60;;;9.70;99.90;;;;;;5053082;28;20033;-86
2022/02/18 08:08:24;;;;;;;13.95;2.50;;;9.80;99.90;;;;;;5045421;28;20124;-86
2022/02/18 08:10:51;;;;;;;9.82;2.53;;;9.90;99.90;;;;;;5051866;28;20021;-85
2022/02/18 08:13:16;;;;;;;11.32;2.05;;;9.90;99.90;;;;;;5055531;28;20124;-88
2022/02/18 08:15:42;;;;;;;10.57;2.00;;;10.00;99.90;;;;;;5058122;28;20053;-88
2022/02/18 08:18:08;;;;;;;11.07;2.40;;;10.10;99.90;;;;;;5055700;28;20037;-79
2022/02/18 08:20:33;;;;;;;8.70;2.08;;;10.20;99.90;;;;;;5054879;28;20037;-89
2022/02/18 08:22:59;;;;;;;10.70;1.92;;;10.30;99.90;;;;;;5055047;28;20091;-88
2022/02/18 08:25:25;;;;;;;7.85;1.73;;;10.30;99.90;;;;;;5058377;28;20048;-87
2022/02/18 08:27:50;;;;;;;7.85;2.38;;;10.40;99.90;;;;;;5079115;28;20036;-83
2022/02/18 08:30:16;;;;;;;9.50;1.63;;;10.50;99.90;;;;;;5077684;28;20037;-76
2022/02/18 08:32:42;;;;;;;7.90;1.58;;;10.60;99.90;;;;;;5078767;28;20055;-86
2022/02/18 08:35:08;;;;;;;10.43;2.45;;;10.70;99.90;;;;;;5067529;28;20044;-78
2022/02/18 08:37:34;;;;;;;5.70;1.48;;;10.80;99.90;;;;;;5058938;28;20035;-84
2022/02/18 08:40:01;;;;;;;9.60;2.05;;;11.00;99.90;;;;;;5060983;28;20117;-81
2022/02/18 08:42:26;;;;;;;5.20;1.45;;;11.00;99.90;;;;;;5053770;28;20104;-75
2022/02/18 08:44:52;;;;;;;7.20;1.83;;;11.10;99.90;;;;;;5063815;28;20059;-84
2022/02/18 08:47:18;;;;;;;7.28;2.80;;;11.20;99.90;;;;;;5073389;28;20434;-84
2022/02/18 08:49:44;;;;;;;7.50;1.50;;;11.30;99.90;;;;;;5071517;28;20090;-78
2022/02/18 08:52:09;;;;;;;12.25;1.38;;;11.30;99.90;;;;;;5071098;28;20017;-78
2022/02/18 08:54:35;;;;;;;6.30;1.65;;;11.40;99.90;;;;;;5074886;28;20029;-83
2022/02/18 08:57:01;;;;;;;7.30;1.67;;;11.60;99.90;;;;;;5076072;28;20051;-84
2022/02/18 08:59:26;;;;;;;3.22;1.23;;;11.60;99.90;;;;;;5075471;28;20029;-85
2022/02/18 09:01:52;;;;;;;3.20;0.90;;;11.70;99.90;;;;;;5069777;28;20115;-77
2022/02/18 09:04:18;;;;;;;6.95;1.33;;;11.80;99.90;;;;;;5055171;28;20021;-80
2022/02/18 09:06:44;;;;;;;6.05;1.35;;;11.90;99.90;;;;;;5054841;28;20455;-81
2022/02/18 09:09:09;;;;;;;7.78;1.23;;;12.10;99.90;;;;;;5048650;28;20049;-79
2022/02/18 09:11:35;;;;;;;4.07;1.45;;;12.20;99.90;;;;;;5052657;28;20080;-79
2022/02/18 09:14:01;;;;;;;4.88;1.20;;;12.30;99.90;;;;;;5054283;28;20025;-78
2022/02/18 09:16:27;;;;;;;10.45;1.75;;;12.40;99.90;;;;;;5053160;28;20029;-79
2022/02/18 09:18:52;;;;;;;10.27;1.67;;;12.50;99.90;;;;;;5054298;28;20388;-79
2022/02/18 09:21:18;;;;;;;8.35;1.63;;;12.50;99.90;;;;;;5053369;28;20029;-80
2022/02/18 09:23:43;;;;;;;7.03;1.60;;;12.60;99.90;;;;;;5052693;28;20110;-80
2022/02/18 09:26:10;;;;;;;2.72;1.10;;;12.60;99.90;;;;;;5052272;28;20104;-80
2022/02/18 09:28:35;;;;;;;3.40;1.40;;;12.60;99.90;;;;;;5052567;28;20112;-81
2022/02/18 09:31:01;;;;;;;5.05;1.00;;;12.70;99.90;;;;;;5053083;28;20482;-79
2022/02/18 09:33:29;;;;;;;4.45;1.10;;;12.80;99.90;;;;;;5050677;28;20040;-81
2022/02/18 09:35:55;;;;;;;5.78;1.40;;;12.90;99.90;;;;;;5059496;28;20040;-80
2022/02/18 09:38:21;;;;;;;9.20;1.20;;;13.00;99.90;;;;;;5051610;28;20081;-78
2022/02/18 09:40:47;;;;;;;4.55;1.20;;;13.10;99.90;;;;;;5051719;28;20030;-78
2022/02/18 09:43:15;;;;;;;6.03;1.20;;;13.20;99.90;;;;;;5051488;28;20262;-76
2022/02/18 09:45:43;;;;;;;5.70;1.20;;;13.30;99.90;;;;;;5053803;28;20033;-79
2022/02/18 09:48:13;;;;;;;5.82;1.75;;;13.40;99.90;;;;;;5053027;28;20108;-78
2022/02/18 09:50:39;;;;;;;4.30;1.00;;;13.50;99.90;;;;;;5051580;28;20098;-79
2022/02/18 09:53:05;;;;;;;3.95;1.25;;;13.60;99.90;;;;;;5053374;28;20033;-79
2022/02/18 09:55:33;;;;;;;6.07;0.85;;;13.80;99.90;;;;;;5052836;28;20032;-78
2022/02/18 09:57:59;;;;;;;5.35;0.60;;;14.00;99.90;;;;;;5053149;28;20060;-80
2022/02/18 10:00:25;;;;;;;4.38;0.77;;;14.10;99.90;;;;;;5051338;28;20108;-79
2022/02/18 10:02:52;;;;;;;6.78;1.60;;;14.30;99.90;;;;;;5052628;28;20112;-79
2022/02/18 10:05:18;;;;;;;3.90;1.23;;;14.30;99.90;;;;;;5052265;28;20462;-79
2022/02/18 10:08:06;;;;;;;6.72;1.75;;;14.40;99.90;;;;;;5053667;28;20031;-79
2022/02/18 10:10:33;;;;;;;3.80;1.00;;;14.50;99.90;;;;;;5053183;28;20029;-80
2022/02/18 10:12:59;;;;;;;2.67;1.10;;;14.60;99.90;;;;;;5052384;28;20029;-79
2022/02/18 10:15:25;;;;;;;2.25;1.25;;;14.70;99.90;;;;;;5053137;28;20091;-80
2022/02/18 10:18:00;;;;;;;3.80;0.95;;;14.80;99.90;;;;;;5053452;28;20478;-79
2022/02/18 10:20:28;;;;;;;8.05;0.77;;;14.80;99.90;;;;;;5051629;28;20082;-80
2022/02/18 10:23:02;;;;;;;5.05;1.02;;;14.90;99.90;;;;;;5053139;28;20056;-80
2022/02/18 10:25:33;;;;;;;6.57;1.00;;;15.00;99.90;;;;;;5052719;28;20462;-79
2022/02/18 10:27:59;;;;;;;5.40;0.90;;;15.10;99.90;;;;;;5053405;28;20071;-80
2022/02/18 10:30:26;;;;;;;5.28;1.30;;;15.20;99.90;;;;;;5053070;28;20432;-80
2022/02/18 10:32:53;;;;;;;8.13;0.95;;;;;;;;;;5057499;28;20458;-80
2022/02/18 10:35:28;;;;;;;4.85;0.68;;;15.40;99.90;;;;;;5051638;28;20021;-80
2022/02/18 10:37:54;;;;;;;7.38;1.30;;;15.50;99.90;;;;;;5053434;28;20017;-82
2022/02/18 10:40:20;;;;;;;2.53;1.00;;;15.40;99.80;;;;;;5052753;28;20081;-81
2022/02/18 10:42:53;;;;;;;3.92;0.73;;;15.50;99.90;;;;;;5053271;28;20048;-80
2022/02/18 10:45:25;;;;;;;2.00;0.63;;;15.60;99.90;;;;;;5052665;28;20025;-80
2022/02/18 10:48:24;;;;;;;4.97;1.08;;;15.90;99.10;;;;;;5053483;28;20044;-81
2022/02/18 10:51:11;;;;;;;5.22;1.10;;;16.10;98.20;;;;;;5053244;28;20036;-80
2022/02/18 10:53:43;;;;;;;4.15;1.45;;;16.20;97.20;;;;;;5052224;28;20097;-79
2022/02/18 10:56:12;;;;;;;4.45;1.20;;;16.30;97.30;;;;;;5053294;28;20033;-80
2022/02/18 10:58:42;;;;;;;5.60;0.90;;;16.50;97.00;;;;;;5051905;28;20073;-80
2022/02/18 11:01:14;;;;;;;5.93;0.90;;;16.70;95.90;;;;;;5053066;28;20040;-80
2022/02/18 11:03:47;;;;;;;4.35;0.73;;;;;;;;;;5052916;28;20021;-80
2022/02/18 11:06:13;;;;;;;3.85;1.00;;;;;;;;;;5052773;28;20100;-80
2022/02/18 11:08:46;;;;;;;6.63;1.00;;;;;;;;;;5052252;28;20107;-80
2022/02/18 11:11:12;;;;;;;4.60;0.98;;;;;;;;;;5052602;28;20482;-80
2022/02/18 11:13:40;;;;;;;3.20;1.08;;;;;;;;;;5052092;28;20033;-79
2022/02/18 11:16:09;;;;;;;2.38;0.75;;;;;;;;;;5052401;28;20372;-80
2022/02/18 11:18:36;;;;;;;4.90;0.80;;;;;;;;;;5052062;28;20273;-79
2022/02/18 11:21:02;;;;;;;5.35;0.60;;;;;;;;;;5052549;28;20028;-81
2022/02/18 11:23:28;;;;;;;5.45;0.80;;;;;;;;;;5051855;28;20036;-77
2022/02/18 11:25:54;;;;;;;3.00;0.80;;;;;;;;;;5052156;28;20025;-78
2022/02/18 11:28:20;;;;;;;7.68;0.90;;;;;;;;;;5051749;28;20033;-78
2022/02/18 11:30:47;;;;;;;3.05;0.80;;;;;;;;;;5052315;28;20028;-79
2022/02/18 11:33:28;;;;;;;2.17;0.63;;;;;;;;;;5052383;28;20033;-78
2022/02/18 11:36:13;;;;;;;7.72;0.90;;;;;;;;;;5052577;28;20096;-78
2022/02/18 11:38:52;;;;;;;2.38;1.10;;;;;;;;;;5051852;28;20024;-79
2022/02/18 11:41:21;;;;;;;3.63;0.70;;;;;;;;;;5051677;28;20025;-79
2022/02/18 11:43:47;;;;;;;1.15;0.75;;;;;;;;;;5052074;28;20028;-79
2022/02/18 11:46:24;;;;;;;6.25;1.02;;;;;;;;;;5051833;28;20028;-79
2022/02/18 11:48:51;;;;;;;6.93;1.00;;;;;;;;;;5052218;28;20039;-80
2022/02/18 11:51:19;;;;;;;2.60;0.98;;;;;;;;;;5051435;28;20381;-77
2022/02/18 11:53:46;;;;;;;5.22;0.82;;;;;;;;;;5051822;28;20056;-79
2022/02/18 11:56:14;;;;;;;2.78;0.75;;;;;;;;;;5051869;28;20021;-79
2022/02/18 11:58:50;;;;;;;8.05;0.85;;;;;;;;;;5051448;28;20375;-80
2022/02/18 12:01:16;;;;;;;3.03;0.90;;;;;;;;;;5051841;28;20544;-78
2022/02/18 12:04:02;;;;;;;4.55;1.00;;;;;;;;;;5051927;28;20355;-78
2022/02/18 12:06:30;;;;;;;4.18;1.02;;;;;;;;;;5051263;28;20466;-79
2022/02/18 12:08:57;;;;;;;6.47;0.60;;;;;;;;;;5051993;28;20529;-78
2022/02/18 12:11:23;;;;;;;7.72;1.30;;;;;;;;;;5051361;28;20025;-79
2022/02/18 12:13:50;;;;;;;4.65;0.80;;;;;;;;;;5052241;28;20024;-78
2022/02/18 12:16:16;;;;;;;1.63;0.70;;;;;;;;;;5051918;28;20093;-78
2022/02/18 12:18:44;;;;;;;11.10;1.35;;;;;;;;;;5051711;28;20025;-78
2022/02/18 12:21:11;;;;;;;7.00;0.70;;;;;;;;;;5051839;28;20028;-78
2022/02/18 12:23:42;;;;;;;6.15;1.00;;;;;;;;;;5051392;28;20162;-78
2022/02/18 12:26:22;;;;;;;4.80;0.80;;;;;;;;;;5051937;28;20389;-78
2022/02/18 12:28:48;;;;;;;;;;;;;;;;;;5052522;28;20478;-79
2022/02/18 12:31:14;;;;;;;3.33;0.70;;;;;;;;;;5051724;28;19912;-78
2022/02/18 12:33:40;;;;;;;4.63;0.73;;;;;;;;;;5051220;28;20078;-78
2022/02/18 12:36:11;;;;;;;3.00;0.70;;;;;;;;;;5051798;28;20025;-79
2022/02/18 12:38:41;;;;;;;5.63;0.82;;;;;;;;;;5051291;28;20111;-80
2022/02/18 12:41:11;;;;;;;3.75;0.80;;;;;;;;;;5051657;28;20102;-78
2022/02/18 12:43:37;;;;;;;2.33;0.93;;;;;;;;;;5051171;28;20025;-78
2022/02/18 12:46:05;;;;;;;3.95;0.90;;;;;;;;;;5051554;28;20057;-79
2022/02/18 12:48:42;;;;;;;2.72;0.50;;;;;;;;;;5051349;28;20025;-79
2022/02/18 12:51:22;;;;;;;4.53;0.80;;;;;;;;;;5051579;28;20393;-78
2022/02/18 12:53:48;;;;;;;7.20;1.25;;;;;;;;;;5051750;28;20100;-79
2022/02/18 12:56:19;;;;;;;3.70;0.85;;;;;;;;;;5051299;28;20056;-79
2022/02/18 12:58:52;;;;;;;5.60;0.80;;;;;;;;;;5053788;28;20107;-79
2022/02/18 13:01:22;;;;;;;7.05;0.98;;;;;;;;;;5054639;28;20027;-74